createdAt,value
2023-05-14T00:03:35.562Z,6.2
2023-05-14T00:09:55.515Z,6.2
2023-05-14T00:16:18.591Z,5.9
2023-05-14T00:22:38.630Z,5.9
2023-05-14T00:29:01.571Z,4.9
2023-05-14T00:35:21.638Z,4.9
2023-05-14T00:41:44.561Z,4.2
2023-05-14T00:48:04.539Z,4.2
2023-05-14T00:54:27.538Z,3.6
2023-05-14T01:00:47.598Z,3.6
2023-05-14T01:07:10.627Z,4.7
2023-05-14T01:13:30.612Z,4.7
2023-05-14T01:19:53.657Z,4.2
2023-05-14T01:26:13.473Z,4.2
2023-05-14T01:32:36.713Z,3.6
2023-05-14T01:38:56.489Z,3.6
2023-05-14T01:45:19.663Z,3.1
2023-05-14T01:51:39.542Z,3.1
2023-05-14T01:58:02.692Z,3.8
2023-05-14T02:04:22.692Z,3.8
2023-05-14T02:10:45.584Z,4
2023-05-14T02:17:05.528Z,4
2023-05-14T02:23:38.200Z,3.5
2023-05-14T02:29:48.720Z,3.5
2023-05-14T02:36:11.585Z,3.2
2023-05-14T02:42:31.475Z,3.2
2023-05-14T02:48:54.750Z,5.4
2023-05-14T02:55:14.560Z,5.4
2023-05-14T03:01:37.585Z,5.8
2023-05-14T03:07:57.654Z,5.8
2023-05-14T03:14:20.630Z,4.8
2023-05-14T03:30:10.343Z,3.7
2023-05-14T03:36:30.481Z,3.7
2023-05-14T03:42:53.598Z,8.8
2023-05-14T03:49:13.592Z,8.8
2023-05-14T03:55:36.560Z,8.8
2023-05-14T04:01:56.614Z,8.8
2023-05-14T04:08:19.531Z,6.1
2023-05-14T04:14:39.593Z,6.1
2023-05-14T04:21:02.575Z,2.7
2023-05-14T04:27:22.648Z,2.7
2023-05-14T04:33:45.622Z,3.5
2023-05-14T04:40:05.653Z,3.5
2023-05-14T04:46:28.791Z,4.5
2023-05-14T04:52:48.556Z,4.5
2023-05-14T04:59:11.556Z,7.2
2023-05-14T05:05:31.618Z,7.2
2023-05-14T05:11:54.549Z,5.2
2023-05-14T05:18:14.575Z,5.2
2023-05-14T05:24:37.581Z,5.5
2023-05-14T05:30:57.603Z,5.5
2023-05-14T05:37:20.712Z,3.2
2023-05-14T05:43:40.708Z,3.2
2023-05-14T05:50:03.653Z,6.9
2023-05-14T05:56:23.615Z,6.9
2023-05-14T06:02:46.654Z,8.7
2023-05-14T06:09:06.554Z,8.7
2023-05-14T06:15:29.477Z,5.1
2023-05-14T06:21:49.689Z,5.1
2023-05-14T06:28:12.581Z,3.8
2023-05-14T06:34:32.628Z,3.8
2023-05-14T06:40:55.644Z,6.3
2023-05-14T06:47:15.498Z,6.3
2023-05-14T06:53:38.524Z,4.7
2023-05-14T06:59:58.657Z,4.7
2023-05-14T07:06:21.641Z,6.1
2023-05-14T07:12:41.653Z,6.1
2023-05-14T07:19:04.633Z,3.5
2023-05-14T07:25:24.493Z,3.5
2023-05-14T07:31:47.600Z,5.5
2023-05-14T07:38:07.638Z,5.5
2023-05-14T07:44:30.529Z,4.4
2023-05-14T07:50:50.647Z,4.4
2023-05-14T07:57:13.614Z,2.5
2023-05-14T08:03:33.669Z,2.5
2023-05-14T08:09:56.598Z,4.5
2023-05-14T08:16:16.593Z,4.5
2023-05-14T08:22:39.616Z,4.2
2023-05-14T08:39:41.104Z,5.9
2023-05-14T08:46:03.065Z,7.1
2023-05-14T08:52:22.490Z,7.1
2023-05-14T08:58:45.543Z,7.1
2023-05-14T09:05:05.490Z,7.1
2023-05-14T09:11:28.558Z,1.4
2023-05-14T09:17:48.746Z,1.4
2023-05-14T09:24:11.499Z,2.7
2023-05-14T09:30:31.618Z,2.7
2023-05-14T09:36:54.646Z,4.2
2023-05-14T09:43:14.502Z,4.2
2023-05-14T09:49:37.545Z,2.7
2023-05-14T09:55:57.727Z,2.7
2023-05-14T10:02:20.514Z,2.8
2023-05-14T10:08:40.521Z,2.8
2023-05-14T10:15:03.748Z,3.2
2023-05-14T10:21:23.674Z,3.2
2023-05-14T10:27:46.534Z,2.3
2023-05-14T10:34:06.816Z,2.3
2023-05-14T10:40:29.555Z,1.3
2023-05-14T10:46:49.561Z,1.3
2023-05-14T10:53:12.736Z,2.7
2023-05-14T10:59:32.612Z,2.7
2023-05-14T11:05:55.566Z,1.9
2023-05-14T11:12:15.702Z,1.9
2023-05-14T11:18:38.598Z,1.4
2023-05-14T11:24:58.578Z,1.4
2023-05-14T11:31:21.719Z,1.2
2023-05-14T11:37:41.679Z,1.2
2023-05-14T11:44:04.558Z,3
2023-05-14T11:50:24.829Z,3
2023-05-14T11:56:47.679Z,1.8
2023-05-14T12:03:07.725Z,1.8
2023-05-14T12:09:30.717Z,1.9
2023-05-14T12:15:50.562Z,1.9
2023-05-14T12:22:13.556Z,2.2
2023-05-14T12:28:35.412Z,2.2
2023-05-14T12:34:56.526Z,3.2
2023-05-14T12:41:16.533Z,3.2
2023-05-14T12:47:39.680Z,2.5
2023-05-14T12:53:59.529Z,2.5
2023-05-14T13:00:22.597Z,5.6
2023-05-14T13:06:42.641Z,5.6
2023-05-14T13:13:05.719Z,1.9
2023-05-14T13:19:25.649Z,1.9
2023-05-14T13:25:49.927Z,3.2
2023-05-14T13:32:08.825Z,3.2
2023-05-14T13:38:31.522Z,2.3
2023-05-14T13:55:14.188Z,2.4
2023-05-14T14:01:37.035Z,3.1
2023-05-14T14:08:00.651Z,3.1
2023-05-14T14:14:19.556Z,3.1
2023-05-14T14:20:39.497Z,3.1
2023-05-14T14:27:02.558Z,2.3
2023-05-14T14:33:22.581Z,2.3
2023-05-14T14:39:45.482Z,1.3
2023-05-14T14:46:05.610Z,1.3
2023-05-14T14:52:28.514Z,2.1
2023-05-14T14:58:48.978Z,2.1
2023-05-14T15:05:11.721Z,1
2023-05-14T15:11:32.061Z,1
2023-05-14T15:17:54.567Z,1.4
2023-05-14T15:24:14.479Z,1.4
2023-05-14T15:30:37.686Z,1
2023-05-14T15:36:57.532Z,1
2023-05-14T15:43:20.487Z,1.4
2023-05-14T15:49:40.560Z,1.4
2023-05-14T15:56:03.498Z,1.7
2023-05-14T16:02:23.488Z,1.7
2023-05-14T16:08:46.543Z,1.5
2023-05-14T16:15:06.498Z,1.5
2023-05-14T16:21:29.581Z,1.4
2023-05-14T16:27:49.519Z,1.4
2023-05-14T16:34:12.549Z,1.8
2023-05-14T16:40:32.545Z,1.8
2023-05-14T16:46:55.540Z,0.6
2023-05-14T16:53:15.559Z,0.6
2023-05-14T16:59:38.491Z,1.4
2023-05-14T17:05:58.519Z,1.4
2023-05-14T17:12:21.504Z,0.8
2023-05-14T17:18:41.498Z,0.8
2023-05-14T17:25:04.849Z,0.3
2023-05-14T17:31:24.837Z,0.3
2023-05-14T17:37:47.510Z,0.5
2023-05-14T17:44:07.526Z,0.5
2023-05-14T17:50:30.565Z,0.2
2023-05-14T17:56:50.593Z,0.2
2023-05-14T18:03:14.154Z,1.5
2023-05-14T18:09:33.548Z,1.5
2023-05-14T18:15:56.567Z,0.8
2023-05-14T18:22:16.631Z,0.8
2023-05-14T18:28:39.601Z,0.6
2023-05-14T18:34:59.507Z,0.6
2023-05-14T18:41:22.746Z,0.7
2023-05-14T18:47:42.573Z,0.7
2023-05-14T18:54:05.537Z,1.1
2023-05-14T19:00:25.625Z,1.1
2023-05-14T19:06:48.810Z,1.8
2023-05-14T19:29:36.453Z,1.1
2023-05-14T19:35:56.518Z,1.1
2023-05-14T19:42:19.603Z,0.8
2023-05-14T19:48:39.687Z,0.8
2023-05-14T19:55:02.642Z,0.2
2023-05-14T20:01:22.553Z,0.2
2023-05-14T20:07:45.607Z,0.4
2023-05-14T20:14:05.541Z,0.4
2023-05-14T20:20:31.066Z,2
2023-05-14T20:26:48.628Z,2
2023-05-14T20:33:11.718Z,1
2023-05-14T20:39:31.546Z,1
2023-05-14T20:45:54.589Z,1.1
2023-05-14T20:52:14.485Z,1.1
2023-05-14T20:58:37.494Z,0.8
2023-05-14T21:04:57.671Z,0.8
2023-05-14T21:11:20.492Z,1.1
2023-05-14T21:17:40.544Z,1.1
2023-05-14T21:24:03.602Z,1.2
2023-05-14T21:30:23.468Z,1.2
2023-05-14T21:36:46.527Z,0.5
2023-05-14T21:43:06.498Z,0.5
2023-05-14T21:49:29.526Z,1.5
2023-05-14T21:55:49.498Z,1.5
2023-05-14T22:02:12.557Z,1.6
2023-05-14T22:25:10.551Z,3.4
2023-05-14T22:31:30.536Z,3.4
2023-05-14T22:37:53.554Z,3.4
2023-05-14T22:44:13.520Z,3.4
2023-05-14T22:50:36.504Z,2.6
2023-05-14T22:56:56.553Z,2.6
2023-05-14T23:03:19.567Z,1.8
2023-05-14T23:09:39.522Z,1.8
2023-05-14T23:16:02.586Z,1.8
2023-05-14T23:22:22.585Z,1.8
2023-05-14T23:28:45.522Z,1.6
2023-05-14T23:35:05.510Z,1.6
2023-05-14T23:41:28.594Z,1.9
2023-05-14T23:47:48.632Z,1.9
2023-05-14T23:54:11.578Z,1.2
